Monday, October 16, 2017, 10:01 PM MDT
Back to Local

KSLC, Salt Lake City International Airport

Location: Salt Lake City, UT, United States Lat: 40.783
Local Time: 10:01 PM MDT ( 4:01 GMT) Lon: -111.967
Time Zone: US/Mountain Elev: 4225 ft

Show me the last for .
Show Decoded

2017-10-16 20:54 METAR KSLC 170254Z 00000KT 10SM FEW220 11/02 A3032 RMK AO2 SLP259 T01110022
                 56003 =
2017-10-16 19:54 METAR KSLC 170154Z 00000KT 10SM FEW220 12/03 A3033 RMK AO2 SLP261 T01220028 =
2017-10-16 18:54 METAR KSLC 170054Z COR 28005KT 10SM FEW220 12/01 A3032 RMK AO2 SLP260 T01170011
                 =
2017-10-16 17:54 METAR KSLC 162354Z 27007KT 10SM SCT240 16/02 A3033 RMK AO2 SLP256 T01610017
                 10178 20133 56007 =
2017-10-16 16:54 METAR KSLC 162254Z 31006KT 10SM SCT240 18/M01 A3034 RMK AO2 SLP256 T01781011 =
2017-10-16 15:54 METAR KSLC 162154Z 32006KT 10SM BKN240 18/M02 A3035 RMK AO2 SLP259 T01781022 =
2017-10-16 14:54 METAR KSLC 162054Z 31005KT 10SM BKN240 17/M02 A3036 RMK AO2 SLP262 T01721022
                 58021 =
2017-10-16 13:54 METAR KSLC 161954Z VRB04KT 10SM SCT230 16/M04 A3038 RMK AO2 SLP271 T01611039 =
2017-10-16 12:54 METAR KSLC 161854Z 31004KT 10SM BKN230 15/M04 A3041 RMK AO2 SLP281 T01501044 =
2017-10-16 11:54 METAR KSLC 161754Z 00000KT 10SM BKN230 13/M04 A3043 RMK AO2 SLP290 T01331044
                 10133 20017 58002 =
2017-10-16 10:54 METAR KSLC 161654Z 00000KT 10SM BKN230 10/M03 A3044 RMK AO2 SLP298 T01001033 $ =
2017-10-16 09:54 METAR KSLC 161554Z 00000KT 10SM BKN220 08/M02 A3044 RMK AO2 SLP301 T00831022 $ =
2017-10-16 08:54 METAR KSLC 161454Z 22003KT 10SM BKN220 04/M02 A3043 RMK AO2 SLP302 T00441017
                 53011 $ =
2017-10-16 07:54 METAR KSLC 161354Z 06004KT 10SM BKN220 03/M03 A3041 RMK AO2 SLP294 T00281028 $ =
2017-10-16 06:54 METAR KSLC 161254Z 12006KT 10SM CLR 02/M03 A3039 RMK AO2 SLP289 T00221028 =
2017-10-16 05:54 METAR KSLC 161154Z 15006KT 10SM FEW200 03/M03 A3040 RMK AO2 SLP282 T00331028
                 10056 20017 58005 =
2017-10-16 04:54 METAR KSLC 161054Z 13005KT 10SM FEW200 03/M02 A3040 RMK AO2 SLP285 T00281022 =
2017-10-16 03:54 METAR KSLC 160954Z 13004KT 10SM FEW200 03/M02 A3041 RMK AO2 SLP286 T00281022 =
2017-10-16 02:54 METAR KSLC 160854Z 18004KT 10SM FEW200 03/M02 A3041 RMK AO2 SLP289 T00331017
                 55000 =
2017-10-16 01:54 METAR KSLC 160754Z 14004KT 10SM CLR 04/M02 A3041 RMK AO2 SLP287 T00441022 =
2017-10-16 00:54 METAR KSLC 160654Z 13005KT 10SM CLR 04/M02 A3041 RMK AO2 SLP289 T00441017
                 401440000 =
2017-10-15 23:54 METAR KSLC 160554Z 15006KT 10SM CLR 06/M02 A3041 RMK AO2 SLP291 T00561017 10128
                 20056 58000 =
2017-10-15 22:54 METAR KSLC 160454Z 15004KT 10SM CLR 07/M02 A3043 RMK AO2 SLP295 T00671017 =

Support USWX by starting your Amazon purchase here.